createdAt,value
2022-12-31T00:02:16.195Z,96677.66
2022-12-31T00:04:42.528Z,96679.06
2022-12-31T00:07:08.843Z,96664.81
2022-12-31T00:09:35.158Z,96665.69
2022-12-31T00:12:01.458Z,96654.41
2022-12-31T00:14:27.774Z,96656.97
2022-12-31T00:16:54.090Z,96659.81
2022-12-31T00:19:20.413Z,96654.28
2022-12-31T00:21:46.731Z,96661.91
2022-12-31T00:24:13.054Z,96656.34
2022-12-31T00:26:39.366Z,96655.63
2022-12-31T00:29:05.696Z,96655.59
2022-12-31T00:31:32.014Z,96653.53
2022-12-31T00:33:58.322Z,96642.63
2022-12-31T00:36:24.650Z,96639.13
2022-12-31T00:38:50.947Z,96641.78
2022-12-31T00:41:17.248Z,96646.06
2022-12-31T00:43:43.616Z,96657.69
2022-12-31T00:46:09.965Z,96653.50
2022-12-31T00:48:36.298Z,96641.75
2022-12-31T00:51:02.619Z,96647.72
2022-12-31T00:53:28.931Z,96654.16
2022-12-31T00:55:55.239Z,96641.19
2022-12-31T00:58:21.559Z,96641.50
2022-12-31T01:00:47.870Z,96644.19
2022-12-31T01:03:14.228Z,96647.13
2022-12-31T01:05:40.592Z,96643.84
2022-12-31T01:08:06.914Z,96640.31
2022-12-31T01:10:33.219Z,96646.63
2022-12-31T01:12:59.533Z,96640.09
2022-12-31T01:15:25.920Z,96650.38
2022-12-31T01:17:52.239Z,96651.34
2022-12-31T01:20:18.556Z,96641.69
2022-12-31T01:22:44.864Z,96643.97
2022-12-31T01:25:11.170Z,96656.44
2022-12-31T01:27:37.483Z,96662.97
2022-12-31T01:30:03.783Z,96661.53
2022-12-31T01:32:30.099Z,96651.34
2022-12-31T01:34:56.516Z,96656.56
2022-12-31T01:37:22.815Z,96641.53
2022-12-31T01:39:49.108Z,96648.13
2022-12-31T01:42:15.423Z,96649.78
2022-12-31T01:44:41.724Z,96643.19
2022-12-31T01:47:08.027Z,96645.84
2022-12-31T01:49:34.388Z,96655.88
2022-12-31T01:52:00.698Z,96658.22
2022-12-31T01:54:27.001Z,96660.81
2022-12-31T01:56:53.345Z,96661.06
2022-12-31T01:59:19.631Z,96670.16
2022-12-31T02:01:45.984Z,96677.41
2022-12-31T02:04:12.333Z,96663.16
2022-12-31T02:06:38.639Z,96666.94
2022-12-31T02:09:04.936Z,96682.50
2022-12-31T02:11:31.270Z,96682.81
2022-12-31T02:13:58.800Z,96683.78
2022-12-31T02:16:25.268Z,96680.50
2022-12-31T02:18:51.793Z,96673.59
2022-12-31T02:21:18.091Z,96678.88
2022-12-31T02:23:44.401Z,96671.91
2022-12-31T02:26:10.738Z,96669.31
2022-12-31T02:28:37.080Z,96663.47
2022-12-31T02:31:03.424Z,96662.78
2022-12-31T02:33:29.807Z,96656.00
2022-12-31T02:35:56.111Z,96650.72
2022-12-31T02:38:22.432Z,96651.50
2022-12-31T02:40:48.770Z,96657.75
2022-12-31T02:43:15.075Z,96659.88
2022-12-31T02:45:41.374Z,96657.78
2022-12-31T02:48:07.708Z,96649.41
2022-12-31T02:50:34.002Z,96655.56
2022-12-31T02:53:00.312Z,96671.13
2022-12-31T02:55:26.673Z,96660.31
2022-12-31T02:57:52.966Z,96653.69
2022-12-31T03:00:19.267Z,96668.28
2022-12-31T03:02:45.600Z,96652.72
2022-12-31T03:05:11.920Z,96675.47
2022-12-31T03:07:38.225Z,96671.34
2022-12-31T03:10:04.562Z,96667.19
2022-12-31T03:12:30.948Z,96677.28
2022-12-31T03:14:57.255Z,96672.69
2022-12-31T03:17:23.566Z,96677.56
2022-12-31T03:19:49.873Z,96671.59
2022-12-31T03:22:16.164Z,96671.00
2022-12-31T03:24:42.545Z,96666.09
2022-12-31T03:27:08.887Z,96667.31
2022-12-31T03:29:35.184Z,96656.13
2022-12-31T03:32:01.559Z,96649.22
2022-12-31T03:34:27.867Z,96654.69
2022-12-31T03:36:54.164Z,96669.31
2022-12-31T03:39:20.481Z,96663.00
2022-12-31T03:41:46.780Z,96657.16
2022-12-31T03:44:13.089Z,96667.47
2022-12-31T03:46:39.414Z,96665.16
2022-12-31T03:49:05.716Z,96661.16
2022-12-31T03:51:32.029Z,96667.81
2022-12-31T03:53:58.343Z,96663.53
2022-12-31T03:56:24.705Z,96666.25
2022-12-31T03:58:51.001Z,96667.16
2022-12-31T04:01:17.415Z,96671.91
2022-12-31T04:03:43.801Z,96678.53
2022-12-31T04:06:10.100Z,96674.63
2022-12-31T04:08:39.236Z,96674.03
2022-12-31T04:11:05.542Z,96671.03
2022-12-31T04:13:31.844Z,96675.88
2022-12-31T04:15:58.197Z,96663.47
2022-12-31T04:18:24.503Z,96663.50
2022-12-31T04:20:50.801Z,96677.13
2022-12-31T04:23:17.146Z,96667.66
2022-12-31T04:25:43.438Z,96670.13
2022-12-31T04:28:09.741Z,96665.94
2022-12-31T04:30:36.072Z,96669.03
2022-12-31T04:33:02.377Z,96670.47
2022-12-31T04:35:28.676Z,96672.88
2022-12-31T04:37:55.018Z,96670.81
2022-12-31T04:40:21.341Z,96669.66
2022-12-31T04:42:47.648Z,96673.34
2022-12-31T04:45:13.966Z,96677.84
2022-12-31T04:47:40.282Z,96680.34
2022-12-31T04:50:06.596Z,96673.53
2022-12-31T04:52:38.601Z,96672.16
2022-12-31T04:55:08.563Z,96664.50
2022-12-31T04:57:34.904Z,96668.53
2022-12-31T05:00:01.210Z,96678.19
2022-12-31T05:02:27.620Z,96669.28
2022-12-31T05:04:54.024Z,96670.75
2022-12-31T05:07:20.333Z,96670.72
2022-12-31T05:09:46.637Z,96673.53
2022-12-31T05:12:12.953Z,96670.09
2022-12-31T05:14:39.245Z,96673.50
2022-12-31T05:17:05.549Z,96670.00
2022-12-31T05:19:31.894Z,96672.22
2022-12-31T05:21:58.192Z,96669.03
2022-12-31T05:24:24.486Z,96671.00
2022-12-31T05:26:50.814Z,96671.47
2022-12-31T05:29:17.111Z,96669.94
2022-12-31T05:31:43.432Z,96672.97
2022-12-31T05:34:09.779Z,96676.28
2022-12-31T05:36:36.106Z,96676.28
2022-12-31T05:39:02.406Z,96676.44
2022-12-31T05:41:28.723Z,96683.44
2022-12-31T05:43:55.017Z,96675.63
2022-12-31T05:46:21.376Z,96684.50
2022-12-31T05:48:47.720Z,96686.03
2022-12-31T05:51:14.015Z,96684.06
2022-12-31T05:53:40.333Z,96689.50
2022-12-31T05:56:06.684Z,96694.16
2022-12-31T05:58:33.044Z,96684.84
2022-12-31T06:00:59.438Z,96691.22
2022-12-31T06:03:25.866Z,96690.63
2022-12-31T06:05:52.212Z,96694.16
2022-12-31T06:08:18.539Z,96695.47
2022-12-31T06:10:44.932Z,96695.38
2022-12-31T06:13:11.292Z,96699.47
2022-12-31T06:15:37.653Z,96694.94
2022-12-31T06:18:04.012Z,96707.97
2022-12-31T06:20:30.367Z,96720.03
2022-12-31T06:22:56.753Z,96716.59
2022-12-31T06:25:24.252Z,96722.69
2022-12-31T06:27:50.619Z,96725.59
2022-12-31T06:30:16.952Z,96724.09
2022-12-31T06:32:43.313Z,96731.50
2022-12-31T06:35:09.672Z,96731.59
2022-12-31T06:37:36.073Z,96730.16
2022-12-31T06:40:02.509Z,96732.44
2022-12-31T06:42:29.110Z,96739.94
2022-12-31T06:44:55.461Z,96732.34
2022-12-31T06:47:21.874Z,96740.44
2022-12-31T06:49:48.229Z,96738.91
2022-12-31T06:52:14.897Z,96745.78
2022-12-31T06:54:41.287Z,96756.13
2022-12-31T06:57:07.637Z,96748.22
2022-12-31T06:59:33.959Z,96742.97
2022-12-31T07:02:00.460Z,96744.16
2022-12-31T07:04:26.905Z,96745.41
2022-12-31T07:06:53.399Z,96738.25
2022-12-31T07:09:19.826Z,96751.94
2022-12-31T07:11:49.403Z,96740.31
2022-12-31T07:14:15.774Z,96745.91
2022-12-31T07:16:42.178Z,96741.03
2022-12-31T07:19:08.539Z,96744.81
2022-12-31T07:21:36.609Z,96748.69
2022-12-31T07:24:03.036Z,96742.72
2022-12-31T07:26:29.387Z,96745.31
2022-12-31T07:28:56.983Z,96746.47
2022-12-31T07:31:23.368Z,96753.09
2022-12-31T07:33:49.743Z,96757.88
2022-12-31T07:36:16.079Z,96752.88
2022-12-31T07:38:42.433Z,96751.84
2022-12-31T07:41:10.068Z,96758.75
2022-12-31T07:43:36.685Z,96755.19
2022-12-31T07:46:03.077Z,96753.72
2022-12-31T07:48:29.430Z,96761.22
2022-12-31T07:50:55.782Z,96754.28
2022-12-31T07:53:22.168Z,96760.56
2022-12-31T07:55:48.549Z,96759.72
2022-12-31T07:58:14.928Z,96765.31
2022-12-31T08:00:41.354Z,96761.94
2022-12-31T08:03:07.723Z,96757.22
2022-12-31T08:05:34.127Z,96743.91
2022-12-31T08:08:02.276Z,96743.34
2022-12-31T08:10:28.777Z,96755.28
2022-12-31T08:12:55.135Z,96750.09
2022-12-31T08:15:30.935Z,96761.75
2022-12-31T08:17:57.326Z,96755.22
2022-12-31T08:20:23.769Z,96757.50
2022-12-31T08:22:50.120Z,96754.56
2022-12-31T08:25:16.485Z,96749.66
2022-12-31T08:27:42.871Z,96751.41
2022-12-31T08:30:09.204Z,96753.94
2022-12-31T08:32:35.565Z,96752.63
2022-12-31T08:35:02.029Z,96750.31
2022-12-31T08:37:28.388Z,96747.88
2022-12-31T08:39:54.780Z,96752.38
2022-12-31T08:42:22.582Z,96753.44
2022-12-31T08:44:51.941Z,96762.88
2022-12-31T08:47:23.781Z,96756.50
2022-12-31T08:49:50.178Z,96767.00
2022-12-31T08:52:16.583Z,96763.50
2022-12-31T08:54:42.925Z,96765.38
2022-12-31T08:57:18.434Z,96759.22
2022-12-31T08:59:46.946Z,96759.53
2022-12-31T09:02:13.480Z,96761.19
2022-12-31T09:05:02.826Z,96766.16
2022-12-31T09:07:31.431Z,96775.59
2022-12-31T09:10:00.832Z,96767.44
2022-12-31T09:12:33.971Z,96771.28
2022-12-31T09:15:07.103Z,96763.47
2022-12-31T09:17:33.715Z,96771.47
2022-12-31T09:20:22.610Z,96756.38
2022-12-31T09:23:01.573Z,96765.53
2022-12-31T09:25:29.132Z,96773.44
2022-12-31T09:28:02.714Z,96775.84
